Time;durP1;ratioP1;P1;durP2;ratioP2;P2;SDS_P1;SDS_P2;PMS_P1;PMS_P2;Temp;Humidity;BMP_temperature;BMP_pressure;BME280_temperature;BME280_humidity;BME280_pressure;Samples;Min_cycle;Max_cycle;Signal;HPM_P1;HPM_P2
2022/08/27 00:01:27;;;;;;;7.85;4.72;;;;;;;21.70;65.40;96447.75;5024542;28;20564;-61
2022/08/27 00:03:54;;;;;;;14.57;4.50;;;;;;;21.69;65.06;96457.41;5024831;28;20041;-61
2022/08/27 00:06:22;;;;;;;22.38;6.03;;;;;;;21.65;65.18;96451.13;5024914;28;20889;-61
2022/08/27 00:08:50;;;;;;;16.58;5.35;;;;;;;21.75;64.39;96449.19;5024817;28;20452;-61
2022/08/27 00:11:19;;;;;;;13.15;5.10;;;;;;;21.66;65.13;96430.16;5024657;28;20049;-62
2022/08/27 00:13:47;;;;;;;14.43;4.80;;;;;;;21.53;66.94;96426.59;5024235;28;20072;-61
2022/08/27 00:16:15;;;;;;;18.35;5.63;;;;;;;21.63;67.59;96447.97;5022829;28;20053;-61
2022/08/27 00:18:45;;;;;;;11.88;4.75;;;;;;;21.21;68.26;96429.75;5026134;28;20499;-61
2022/08/27 00:21:14;;;;;;;11.35;5.35;;;;;;;21.41;68.32;96441.53;5028749;28;20059;-61
2022/08/27 00:23:42;;;;;;;22.48;6.20;;;;;;;21.52;67.23;96453.22;5028619;28;20053;-61
2022/08/27 00:26:09;;;;;;;18.08;6.03;;;;;;;21.11;67.28;96399.91;5028358;28;20445;-61
2022/08/27 00:28:36;;;;;;;13.98;5.97;;;;;;;21.52;67.60;96439.13;5026993;28;20065;-61
2022/08/27 00:31:02;;;;;;;14.95;5.00;;;;;;;21.60;67.29;96443.25;5028550;28;20046;-62
2022/08/27 00:33:29;;;;;;;15.02;5.00;;;;;;;21.64;67.46;96449.53;5028491;28;20049;-61
2022/08/27 00:35:56;;;;;;;16.10;5.15;;;;;;;21.58;67.79;96447.75;5026942;28;20053;-61
2022/08/27 00:38:23;;;;;;;16.48;5.07;;;;;;;21.55;68.09;96435.38;5026432;28;20057;-61
2022/08/27 00:40:51;;;;;;;12.48;5.15;;;;;;;21.49;67.40;96425.94;5026968;28;20053;-61
2022/08/27 00:43:33;;;;;;;14.27;5.20;;;;;;;21.26;67.28;96417.13;5018999;28;20061;-61
2022/08/27 00:46:09;;;;;;;14.52;4.82;;;;;;;21.52;67.75;96441.94;5006951;28;20587;-61
2022/08/27 00:48:36;;;;;;;13.82;4.60;;;;;;;21.49;68.58;96450.50;5007155;28;20064;-62
2022/08/27 00:51:04;;;;;;;13.40;5.35;;;;;;;21.47;68.21;96445.34;5005819;28;20429;-61
2022/08/27 00:53:34;;;;;;;11.25;4.97;;;;;;;21.51;67.84;96451.66;5004514;28;20508;-62
2022/08/27 00:56:08;;;;;;;12.57;5.60;;;;;;;21.51;68.46;96446.00;5007085;28;20058;-61
2022/08/27 00:58:39;;;;;;;17.35;5.05;;;;;;;21.45;68.23;96453.44;5009063;28;20520;-61
2022/08/27 01:01:09;;;;;;;15.10;4.72;;;;;;;21.47;68.68;96450.97;5007130;28;20491;-61
2022/08/27 01:03:37;;;;;;;9.98;4.82;;;;;;;21.50;68.14;96450.06;5006884;28;20072;-61
2022/08/27 01:06:09;;;;;;;19.35;4.82;;;;;;;21.42;68.30;96462.81;5006840;28;20050;-61
2022/08/27 01:08:39;;;;;;;15.65;5.43;;;;;;;21.45;68.26;96447.81;5006674;28;20062;-62
2022/08/27 01:11:06;;;;;;;9.55;5.03;;;;;;;21.50;68.34;96447.22;5006944;28;20193;-61
2022/08/27 01:13:33;;;;;;;15.48;5.50;;;;;;;21.18;68.55;96405.31;5006576;28;20115;-61
2022/08/27 01:16:25;;;;;;;12.27;4.78;;;;;;;21.53;68.18;96440.69;5006633;28;20103;-62
2022/08/27 01:18:53;;;;;;;13.60;4.93;;;;;;;21.06;68.67;96386.41;5006913;28;20064;-61
2022/08/27 01:21:48;;;;;;;13.00;5.13;;;;;;;21.29;68.93;96421.84;5006684;28;20151;-61
2022/08/27 01:24:42;;;;;;;19.80;5.43;;;;;;;21.39;69.41;96438.38;5007060;28;20531;-61
2022/08/27 01:27:16;;;;;;;11.77;4.78;;;;;;;21.41;69.89;96441.53;5007053;28;20064;-63
2022/08/27 01:29:44;;;;;;;16.52;5.45;;;;;;;21.49;69.19;96445.66;5004804;28;20077;-61
2022/08/27 01:32:19;;;;;;;11.35;5.63;;;;;;;21.46;69.18;96448.59;5007195;28;20147;-62
2022/08/27 01:34:46;;;;;;;14.18;5.55;;;;;;;21.48;68.86;96441.25;5006480;28;20120;-61
2022/08/27 01:37:14;;;;;;;11.85;6.05;;;;;;;21.44;69.02;96446.25;5006999;28;20064;-62
2022/08/27 01:39:42;;;;;;;11.13;5.22;;;;;;;21.39;69.01;96438.38;4968131;28;1138930;-62
2022/08/27 01:42:23;;;;;;;11.60;5.70;;;;;;;21.46;68.38;96438.13;5006424;28;20479;-62
2022/08/27 01:45:00;;;;;;;16.38;5.70;;;;;;;21.42;68.38;96454.38;5026452;28;20045;-62
2022/08/27 01:47:31;;;;;;;15.30;5.32;;;;;;;21.36;68.69;96433.66;5025929;28;20579;-61
2022/08/27 01:49:59;;;;;;;10.77;5.45;;;;;;;21.31;69.00;96430.63;5026986;28;20056;-62
2022/08/27 01:52:28;;;;;;;16.20;5.57;;;;;;;21.10;68.64;96384.28;5027179;28;20053;-62
2022/08/27 01:54:56;;;;;;;12.95;5.28;;;;;;;21.40;68.63;96434.31;5027116;28;20057;-62
2022/08/27 01:57:22;;;;;;;12.30;4.80;;;;;;;21.33;69.01;96433.75;5026986;28;20486;-62
2022/08/27 01:59:52;;;;;;;15.10;5.03;;;;;;;20.99;69.71;96386.66;5027407;28;20050;-62
2022/08/27 02:02:19;;;;;;;15.70;5.43;;;;;;;21.27;68.74;96408.22;5025575;28;20511;-61
2022/08/27 02:04:46;;;;;;;13.82;5.13;;;;;;;21.21;69.31;96417.69;5027100;28;20137;-61
2022/08/27 02:07:13;;;;;;;12.95;4.60;;;;;;;21.22;69.69;96431.31;5026635;28;20649;-62
2022/08/27 02:09:40;;;;;;;18.52;4.78;;;;;;;21.17;70.70;96428.28;5025516;28;20057;-61
2022/08/27 02:12:07;;;;;;;11.38;5.50;;;;;;;21.07;71.56;96432.28;5026818;28;20526;-62
2022/08/27 02:14:34;;;;;;;21.90;6.28;;;;;;;20.99;72.17;96426.09;5026836;28;20072;-62
2022/08/27 02:17:01;;;;;;;17.17;7.85;;;;;;;20.96;72.65;96435.41;5027051;28;20045;-62
2022/08/27 02:19:28;;;;;;;13.45;6.68;;;;;;;20.99;72.57;96431.72;5026906;28;20045;-62
2022/08/27 02:21:58;;;;;;;16.75;6.22;;;;;;;20.81;74.96;96434.28;5026845;28;20061;-61
2022/08/27 02:24:27;;;;;;;22.65;7.10;;;;;;;20.55;77.73;96435.56;5026423;28;20045;-63
2022/08/27 02:26:54;;;;;;;11.70;6.00;;;;;;;20.41;79.15;96441.59;5026752;28;20053;-62
2022/08/27 02:29:23;;;;;;;19.67;6.75;;;;;;;20.55;78.44;96435.56;5026354;28;20053;-61
2022/08/27 02:31:49;;;;;;;20.58;6.97;;;;;;;20.07;78.24;96382.38;5026593;28;20248;-62
2022/08/27 02:34:17;;;;;;;14.43;6.07;;;;;;;20.51;78.43;96434.88;5026089;28;20064;-62
2022/08/27 02:36:44;;;;;;;13.43;6.45;;;;;;;20.58;77.77;96440.28;5026166;28;20071;-61
2022/08/27 02:39:11;;;;;;;16.50;6.03;;;;;;;20.22;77.86;96372.28;5025819;28;20057;-62
2022/08/27 02:41:37;;;;;;;14.30;6.07;;;;;;;20.59;78.33;96433.41;5023510;28;20216;-62
2022/08/27 02:44:04;;;;;;;20.88;5.75;;;;;;;20.55;77.60;96418.69;5012071;28;20533;-61
2022/08/27 02:46:37;;;;;;;16.00;6.15;;;;;;;20.66;77.20;96441.63;5006339;28;20064;-62
2022/08/27 02:49:05;;;;;;;12.50;5.53;;;;;;;20.68;77.58;96433.50;5004391;28;20057;-61
2022/08/27 02:51:32;;;;;;;10.02;5.28;;;;;;;20.18;76.87;96349.91;5006067;28;20430;-62
2022/08/27 02:54:00;;;;;;;11.73;5.00;;;;;;;20.72;76.80;96434.19;5006061;28;20057;-62
2022/08/27 02:56:27;;;;;;;14.70;6.68;;;;;;;20.62;75.48;96396.72;5005547;28;20061;-61
2022/08/27 02:58:54;;;;;;;19.55;6.10;;;;;;;20.75;75.40;96428.44;5005965;28;20053;-61
2022/08/27 03:01:21;;;;;;;14.88;5.45;;;;;;;20.64;75.30;96427.22;5005875;28;20060;-61
2022/08/27 03:03:47;;;;;;;14.35;5.43;;;;;;;18.86;75.26;96137.22;5005930;28;20080;-61
2022/08/27 03:06:14;;;;;;;13.60;5.55;;;;;;;20.67;75.91;96426.31;5005805;28;20050;-61
2022/08/27 03:08:41;;;;;;;10.70;4.93;;;;;;;20.42;77.09;96415.84;5006273;28;20046;-62
2022/08/27 03:11:21;;;;;;;13.63;5.68;;;;;;;20.09;77.45;96379.91;5005708;28;20086;-63
2022/08/27 03:13:48;;;;;;;14.07;5.80;;;;;;;20.50;77.41;96439.69;5004339;28;20141;-62
2022/08/27 03:16:14;;;;;;;17.55;5.20;;;;;;;20.36;78.20;96433.75;5005604;28;20058;-61
2022/08/27 03:18:41;;;;;;;12.73;5.15;;;;;;;20.30;78.71;96436.31;5005462;28;20096;-59
2022/08/27 03:21:08;;;;;;;15.05;5.13;;;;;;;20.18;79.39;96416.63;5005751;28;20065;-61
2022/08/27 03:23:34;;;;;;;11.82;5.38;;;;;;;20.07;79.47;96399.25;5005668;28;20049;-61
2022/08/27 03:26:09;;;;;;;13.38;5.78;;;;;;;20.27;79.89;96444.88;5005550;28;20054;-60
2022/08/27 03:28:36;;;;;;;16.85;5.93;;;;;;;20.05;80.21;96421.41;5005266;28;20046;-60
2022/08/27 03:31:05;;;;;;;11.93;6.57;;;;;;;20.16;80.73;96444.41;5003799;28;20048;-61
2022/08/27 03:33:38;;;;;;;13.60;6.15;;;;;;;20.11;81.05;96440.09;5168290;23;20489;-63
2022/08/27 03:36:07;;;;;;;16.45;6.32;;;;;;;19.91;80.93;96413.41;5021111;28;20048;-63
2022/08/27 03:38:35;;;;;;;14.32;5.82;;;;;;;20.09;80.45;96464.28;5023062;28;20052;-63
2022/08/27 03:41:02;;;;;;;14.55;5.78;;;;;;;20.02;79.44;96470.91;5023922;28;20053;-62
2022/08/27 03:43:29;;;;;;;12.75;6.43;;;;;;;19.45;79.81;96364.94;5036342;28;20061;-65
2022/08/27 03:45:56;;;;;;;17.70;7.18;;;;;;;20.07;79.27;96449.88;5043070;28;20061;-63
2022/08/27 03:48:29;;;;;;;15.55;6.50;;;;;;;20.01;79.92;96457.28;5043677;28;20243;-63
2022/08/27 03:50:56;;;;;;;29.33;6.65;;;;;;;20.00;79.34;96450.06;5044847;28;20501;-65
2022/08/27 03:53:23;;;;;;;14.07;5.78;;;;;;;19.32;80.65;96372.53;5043717;28;20471;-63
2022/08/27 03:55:50;;;;;;;10.95;5.57;;;;;;;19.83;80.45;96457.00;5028544;28;20058;-62
2022/08/27 03:58:17;;;;;;;14.75;6.10;;;;;;;19.35;80.57;96382.88;5003785;28;20046;-63
2022/08/27 04:00:44;;;;;;;12.57;5.40;;;;;;;19.74;81.24;96454.06;5003678;28;20061;-63
2022/08/27 04:03:13;;;;;;;18.73;5.45;;;;;;;19.43;81.31;96446.06;5003254;28;20058;-63
2022/08/27 04:05:41;;;;;;;14.60;5.65;;;;;;;19.77;80.88;96458.78;5003887;28;20140;-63
2022/08/27 04:08:12;;;;;;;16.92;5.50;;;;;;;19.61;81.51;96450.41;5003566;28;20419;-62
2022/08/27 04:10:42;;;;;;;13.07;6.03;;;;;;;19.78;80.66;96465.97;5003767;28;20057;-63
2022/08/27 04:13:08;;;;;;;13.38;5.80;;;;;;;19.77;80.30;96470.03;5005112;28;20057;-65
2022/08/27 04:15:35;;;;;;;11.82;5.43;;;;;;;19.75;79.87;96466.84;5004927;28;20066;-62
2022/08/27 04:18:06;;;;;;;15.07;5.28;;;;;;;19.81;79.62;96470.69;5003614;28;20081;-63
2022/08/27 04:20:33;;;;;;;13.75;6.50;;;;;;;19.74;80.00;96459.66;5003590;28;20053;-64
2022/08/27 04:23:01;;;;;;;13.90;5.35;;;;;;;19.91;79.19;96469.63;5003567;28;20046;-63
2022/08/27 04:25:28;;;;;;;14.65;5.43;;;;;;;19.96;79.45;96460.63;5004560;28;20054;-64
2022/08/27 04:27:55;;;;;;;14.38;6.38;;;;;;;20.01;78.52;96479.78;5004221;28;20515;-61
2022/08/27 04:30:22;;;;;;;12.82;5.78;;;;;;;20.01;78.02;96474.16;4814087;28;5001722;-62
2022/08/27 04:32:49;;;;;;;13.60;6.15;;;;;;;19.62;78.52;96437.94;5034701;28;20134;-62
2022/08/27 04:35:16;;;;;;;17.48;6.80;;;;;;;19.51;78.64;96396.88;5043058;28;20053;-64
2022/08/27 04:37:43;;;;;;;17.17;6.10;;;;;;;19.58;77.44;96391.03;5044167;28;20053;-63
2022/08/27 04:40:10;;;;;;;15.85;6.22;;;;;;;19.99;77.83;96487.88;5042935;28;20049;-63
2022/08/27 04:42:36;;;;;;;20.52;6.78;;;;;;;20.04;78.41;96479.69;5044344;28;20053;-64
2022/08/27 04:45:04;;;;;;;13.80;6.00;;;;;;;20.16;77.26;96497.84;5044361;28;20052;-63
2022/08/27 04:47:31;;;;;;;14.45;6.38;;;;;;;19.75;79.82;96473.28;5042621;28;20053;-62
2022/08/27 04:49:58;;;;;;;23.75;7.40;;;;;;;19.89;80.81;96469.25;5042797;28;20056;-63
2022/08/27 04:52:25;;;;;;;17.20;6.15;;;;;;;20.18;77.89;96490.53;5044028;28;20056;-63
2022/08/27 04:54:52;;;;;;;16.25;6.07;;;;;;;20.23;78.12;96492.00;5043645;28;20079;-62
2022/08/27 04:57:19;;;;;;;15.82;6.65;;;;;;;19.49;79.97;96388.09;5042220;28;20061;-62
2022/08/27 04:59:46;;;;;;;24.67;6.80;;;;;;;20.18;79.75;96489.75;5042418;28;20065;-63
2022/08/27 05:02:13;;;;;;;13.00;6.25;;;;;;;20.24;77.55;96490.75;5044078;28;20053;-64
2022/08/27 05:04:40;;;;;;;11.73;5.70;;;;;;;20.08;77.61;96497.22;5045327;28;20049;-62
2022/08/27 05:07:08;;;;;;;12.32;6.07;;;;;;;20.15;78.01;96502.69;5047728;28;20065;-63
2022/08/27 05:09:36;;;;;;;13.98;7.00;;;;;;;20.22;78.04;96496.03;5047616;28;20084;-62
2022/08/27 05:12:02;;;;;;;13.93;7.97;;;;;;;19.70;77.70;96402.75;5047344;28;20053;-65
2022/08/27 05:14:31;;;;;;;17.08;7.28;;;;;;;20.35;78.29;96499.69;5047160;28;20060;-63
2022/08/27 05:16:59;;;;;;;16.88;6.88;;;;;;;20.32;77.24;96494.94;5045513;28;20143;-63
2022/08/27 05:19:26;;;;;;;13.55;5.78;;;;;;;20.40;77.50;96501.94;5045770;28;20065;-61
2022/08/27 05:21:53;;;;;;;20.10;6.57;;;;;;;20.49;77.74;96494.41;5045590;28;20060;-63
2022/08/27 05:24:20;;;;;;;20.98;7.50;;;;;;;20.59;76.72;96498.94;5047113;28;20048;-62
2022/08/27 05:26:49;;;;;;;18.08;7.45;;;;;;;20.55;76.54;96469.34;5034576;28;20527;-61
2022/08/27 05:29:16;;;;;;;15.38;7.15;;;;;;;20.66;76.17;96475.41;5005975;28;20057;-63
2022/08/27 05:31:43;;;;;;;24.02;7.43;;;;;;;20.75;75.85;96478.34;5014450;28;20262;-62
2022/08/27 05:34:10;;;;;;;20.83;7.28;;;;;;;20.79;75.78;96462.09;5046631;28;20060;-63
2022/08/27 05:36:47;;;;;;;21.83;7.82;;;;;;;20.70;74.88;96453.56;5047075;28;20064;-62
2022/08/27 05:39:15;;;;;;;17.83;6.85;;;;;;;21.12;74.40;96502.88;5046726;28;20152;-63
2022/08/27 05:41:43;;;;;;;14.13;6.55;;;;;;;21.22;73.61;96504.56;5045413;28;20055;-63
2022/08/27 05:44:10;;;;;;;12.68;6.32;;;;;;;21.31;72.38;96504.66;5046822;28;20276;-63
2022/08/27 05:46:56;;;;;;;19.60;5.20;;;;;;;20.79;72.57;96425.50;5045283;28;20053;-64
2022/08/27 05:49:23;;;;;;;16.83;6.20;;;;;;;21.50;71.20;96514.88;5046577;28;20053;-63
2022/08/27 05:51:50;;;;;;;18.45;6.15;;;;;;;21.43;70.74;96478.50;5044880;28;20084;-63
2022/08/27 05:54:20;;;;;;;13.38;5.55;;;;;;;21.45;69.19;96461.91;5044866;28;20056;-62
2022/08/27 05:56:48;;;;;;;7.85;5.10;;;;;;;21.87;69.45;96513.22;5045015;28;20053;-63
2022/08/27 06:02:03;;;;;;;19.67;5.93;;;;;;;22.07;66.72;96511.66;5046096;28;20135;-63
2022/08/27 06:04:29;;;;;;;14.70;5.28;;;;;;;22.06;65.67;96498.81;5044663;28;20053;-65
2022/08/27 06:06:56;;;;;;;17.55;5.60;;;;;;;22.15;65.76;96462.19;5046190;28;20053;-63
2022/08/27 06:09:25;;;;;;;15.75;5.75;;;;;;;22.66;65.70;96507.06;5044842;28;20064;-63
2022/08/27 06:11:54;;;;;;;13.23;4.63;;;;;;;22.55;65.16;96462.31;5044782;28;20057;-64
2022/08/27 06:14:21;;;;;;;15.13;5.22;;;;;;;22.85;63.68;96474.81;5045856;28;20057;-63
2022/08/27 06:16:48;;;;;;;9.93;5.18;;;;;;;23.20;64.58;96512.94;5045568;28;20053;-63
2022/08/27 06:19:15;;;;;;;17.63;5.60;;;;;;;23.30;63.48;96515.34;5022240;28;20091;-64
2022/08/27 06:21:42;;;;;;;15.55;5.57;;;;;;;23.59;62.44;96512.91;5042962;28;20056;-63
2022/08/27 06:24:13;;;;;;;15.77;5.00;;;;;;;23.70;61.48;96516.06;5045926;28;20551;-64
2022/08/27 06:26:43;;;;;;;12.73;5.30;;;;;;;24.05;61.47;96522.25;5045808;28;20469;-64
2022/08/27 06:29:11;;;;;;;15.85;5.28;;;;;;;24.23;61.29;96525.09;5045672;28;20076;-64
2022/08/27 06:31:38;;;;;;;11.05;5.45;;;;;;;24.15;60.81;96475.72;5043247;28;20053;-61
2022/08/27 06:34:07;;;;;;;16.10;6.28;;;;;;;24.73;59.77;96521.56;5025566;28;20542;-63
2022/08/27 06:36:41;;;;;;;12.90;5.85;;;;;;;24.89;58.80;96518.38;5025818;28;20057;-63
2022/08/27 06:39:12;;;;;;;13.38;6.30;;;;;;;24.71;58.88;96455.31;5025907;28;20061;-62
2022/08/27 06:41:40;;;;;;;18.00;5.90;;;;;;;25.34;59.01;96510.97;5025874;28;20371;-63
2022/08/27 06:44:07;;;;;;;17.10;6.85;;;;;;;25.16;58.40;96453.06;5025422;28;20527;-62
2022/08/27 06:46:35;;;;;;;13.38;5.57;;;;;;;25.74;57.73;96519.88;5023497;28;20503;-62
2022/08/27 06:49:04;;;;;;;20.60;6.40;;;;;;;25.63;56.26;96479.91;5025632;28;20499;-63
2022/08/27 06:51:34;;;;;;;13.70;6.13;;;;;;;26.02;55.64;96496.50;5025562;28;20488;-62
2022/08/27 06:54:11;;;;;;;16.20;5.90;;;;;;;26.43;55.16;96514.63;5024264;28;20060;-63
2022/08/27 06:56:38;;;;;;;13.02;6.07;;;;;;;26.00;52.60;96452.84;5024992;28;20060;-63
2022/08/27 06:59:07;;;;;;;18.15;5.60;;;;;;;25.11;53.54;96291.34;5024890;28;20049;-67
2022/08/27 07:01:40;;;;;;;26.75;5.95;;;;;;;26.84;53.19;96507.91;5023856;28;20134;-62
2022/08/27 07:04:11;;;;;;;13.10;6.25;;;;;;;26.98;51.90;96520.53;5025675;28;20064;-63
2022/08/27 07:06:39;;;;;;;17.70;5.90;;;;;;;27.22;51.06;96516.28;5024344;28;20057;-61
2022/08/27 07:09:08;;;;;;;11.35;5.30;;;;;;;25.91;49.44;96272.00;5005350;28;20444;-62
2022/08/27 07:11:35;;;;;;;14.20;6.35;;;;;;;27.50;49.14;96517.53;5005673;28;20058;-62
2022/08/27 07:14:02;;;;;;;12.95;6.32;;;;;;;27.43;49.10;96489.50;5020295;28;20050;-61
2022/08/27 07:16:29;;;;;;;15.32;5.97;;;;;;;27.66;49.30;96525.50;5004835;28;20508;-61
2022/08/27 07:18:58;;;;;;;11.50;6.30;;;;;;;27.93;48.15;96510.91;5005048;28;20060;-61
2022/08/27 07:21:32;;;;;;;14.20;6.68;;;;;;;27.66;48.87;96460.03;5004998;28;20057;-61
2022/08/27 07:24:03;;;;;;;12.05;5.93;;;;;;;27.80;46.22;96439.28;5005688;28;20061;-62
2022/08/27 07:26:33;;;;;;;15.50;5.82;;;;;;;28.39;45.88;96513.03;5004761;28;20057;-62
2022/08/27 07:29:00;;;;;;;13.23;6.30;;;;;;;28.21;45.16;96497.03;5003819;28;20061;-62
2022/08/27 07:31:27;;;;;;;13.32;6.40;;;;;;;28.70;44.02;96513.13;5005403;28;20085;-64
2022/08/27 07:33:54;;;;;;;11.50;6.07;;;;;;;26.76;43.00;96179.88;5004686;28;20064;-62
2022/08/27 07:36:21;;;;;;;12.73;6.10;;;;;;;29.19;41.22;96512.81;5007011;28;20444;-63
2022/08/27 07:38:50;;;;;;;16.08;5.93;;;;;;;29.28;41.67;96512.63;5004795;28;20046;-62
2022/08/27 07:41:28;;;;;;;15.25;6.68;;;;;;;28.90;41.11;96518.75;5005025;28;20543;-62
2022/08/27 07:46:45;;;;;;;21.25;6.15;;;;;;;29.15;39.84;96518.00;5004946;28;20061;-63
2022/08/27 07:49:16;;;;;;;14.10;5.15;;;;;;;29.20;39.56;96503.75;5005000;28;20136;-60
2022/08/27 07:51:43;;;;;;;16.48;5.68;;;;;;;29.39;38.68;96489.88;5003206;28;20139;-62
2022/08/27 07:54:10;;;;;;;15.65;5.72;;;;;;;29.87;39.22;96522.16;5004615;28;20049;-60
2022/08/27 07:56:37;;;;;;;15.23;5.30;;;;;;;29.18;38.71;96439.94;5019428;28;20068;-61
2022/08/27 07:59:04;;;;;;;16.00;5.60;;;;;;;29.68;40.56;96515.28;5003999;28;20081;-63
2022/08/27 08:01:31;;;;;;;16.25;6.03;;;;;;;29.91;39.76;96505.53;5018992;28;20061;-61
2022/08/27 08:03:58;;;;;;;14.20;5.40;;;;;;;29.90;39.25;96488.91;5004615;28;20057;-60
2022/08/27 08:06:25;;;;;;;15.05;5.15;;;;;;;30.06;38.39;96489.00;5004319;28;20102;-61
2022/08/27 08:08:53;;;;;;;14.88;5.40;;;;;;;30.22;38.03;96474.03;5002770;28;20515;-62
2022/08/27 08:11:20;;;;;;;20.23;5.88;;;;;;;30.72;36.25;96500.66;5002600;28;20678;-61
2022/08/27 08:13:47;;;;;;;11.77;5.00;;;;;;;30.50;36.28;96503.47;5004434;28;20483;-62
2022/08/27 08:16:13;;;;;;;12.88;5.63;;;;;;;29.19;36.41;96412.97;5002567;28;20054;-62
2022/08/27 08:18:40;;;;;;;17.30;5.38;;;;;;;29.93;36.04;96507.88;5019153;28;20050;-61
2022/08/27 08:21:11;;;;;;;22.20;6.03;;;;;;;29.70;36.51;96466.22;5002835;28;20126;-61
2022/08/27 08:23:38;;;;;;;16.05;5.70;;;;;;;29.66;36.22;96383.66;5004168;28;20061;-63
2022/08/27 08:26:07;;;;;;;13.20;5.10;;;;;;;30.63;35.60;96503.78;5004222;28;20085;-62
2022/08/27 08:28:34;;;;;;;17.35;5.45;;;;;;;30.70;35.63;96505.31;5003798;28;20547;-61
2022/08/27 08:31:01;;;;;;;13.95;5.75;;;;;;;30.95;36.12;96495.78;5003979;28;20049;-60
2022/08/27 08:33:30;;;;;;;18.50;5.47;;;;;;;31.15;35.86;96503.31;5035727;28;20612;-60
2022/08/27 08:36:23;;;;;;;20.95;6.90;;;;;;;30.87;35.36;96500.47;5043859;28;20049;-62
2022/08/27 08:38:49;;;;;;;19.45;6.35;;;;;;;30.67;34.92;96469.97;5040884;28;20053;-61
2022/08/27 08:41:42;;;;;;;20.65;7.05;;;;;;;31.15;34.28;96503.31;5045640;28;20060;-62
2022/08/27 08:44:13;;;;;;;16.77;5.88;;;;;;;31.21;34.20;96506.97;5039309;28;20049;-61
2022/08/27 08:46:52;;;;;;;20.70;5.93;;;;;;;31.29;34.41;96502.28;5046417;28;20049;-61
2022/08/27 08:49:41;;;;;;;23.23;5.55;;;;;;;31.36;34.73;96502.59;5047482;28;20083;-63
2022/08/27 08:52:32;;;;;;;37.85;15.18;;;;;;;31.48;35.62;96503.34;5045899;28;20053;-63
2022/08/27 08:55:12;;;;;;;28.13;10.30;;;;;;;31.36;35.29;96476.81;5046072;28;20049;-63
2022/08/27 08:57:55;;;;;;;48.58;17.70;;;;;;;31.30;34.21;96512.44;5047163;28;20167;-63
2022/08/27 09:00:22;;;;;;;;;;;;;;;31.22;34.79;96502.81;5046426;28;20065;-61
2022/08/27 09:02:55;;;;;;;19.33;7.20;;;;;;;30.65;35.52;96412.50;5046298;28;19925;-61
2022/08/27 09:05:24;;;;;;;20.98;6.18;;;;;;;31.49;34.33;96488.50;5047363;28;20076;-61
2022/08/27 09:08:21;;;;;;;23.80;6.78;;;;;;;31.29;33.44;96445.03;5046905;28;20140;-62
2022/08/27 09:11:19;;;;;;;23.85;6.43;;;;;;;31.88;33.33;96491.31;5046198;28;20051;-62
2022/08/27 09:13:50;;;;;;;37.08;15.77;;;;;;;31.92;33.74;96460.28;5045510;28;20052;-62
2022/08/27 09:16:17;;;;;;;30.25;9.85;;;;;;;31.43;33.64;96438.25;5045128;28;20507;-61
2022/08/27 09:18:44;;;;;;;23.10;6.97;;;;;;;32.07;34.10;96492.31;5046932;28;20491;-62
2022/08/27 09:21:24;;;;;;;21.48;6.25;;;;;;;32.36;33.30;96488.78;5045633;28;20076;-60
2022/08/27 09:24:14;;;;;;;22.50;6.30;;;;;;;32.67;34.00;96488.38;5047348;28;20060;-61
2022/08/27 09:26:43;;;;;;;24.67;6.57;;;;;;;32.76;33.11;96496.66;5046690;28;20068;-60
2022/08/27 09:29:20;;;;;;;19.02;6.30;;;;;;;32.31;33.53;96489.59;5045615;28;20391;-60
2022/08/27 09:31:59;;;;;;;15.23;6.40;;;;;;;32.52;32.98;96490.03;5043571;28;20049;-60
2022/08/27 09:34:33;;;;;;;20.67;6.65;;;;;;;32.73;32.96;96486.25;5025664;28;20138;-67
2022/08/27 09:37:07;;;;;;;19.10;7.05;;;;;;;32.73;32.68;96486.25;5026797;28;20064;-67
2022/08/27 09:39:46;;;;;;;22.67;7.07;;;;;;;31.95;32.99;96399.06;5025764;28;20061;-66
2022/08/27 09:42:28;;;;;;;13.80;5.72;;;;;;;31.93;32.75;96491.28;5027039;28;20057;-65
2022/08/27 09:44:56;;;;;;;9.67;4.67;;;;;;;31.64;33.30;96488.22;5026464;28;20057;-64
2022/08/27 09:47:24;;;;;;;25.58;6.63;;;;;;;31.92;33.43;96486.09;5026983;28;20123;-67
2022/08/27 09:50:07;;;;;;;17.95;6.65;;;;;;;32.14;33.24;96492.53;5025167;28;20056;-68
2022/08/27 09:52:47;;;;;;;20.58;6.07;;;;;;;32.20;32.96;96489.66;5026714;28;20065;-66
2022/08/27 09:55:26;;;;;;;18.52;6.35;;;;;;;31.75;31.81;96493.94;5026885;28;20057;-67
2022/08/27 09:57:53;;;;;;;25.77;6.55;;;;;;;31.76;32.49;96449.63;5026768;28;20432;-66
2022/08/27 10:00:35;;;;;;;16.48;5.80;;;;;;;32.89;31.85;96493.22;5024797;28;20052;-66
2022/08/27 10:03:02;;;;;;;23.20;7.28;;;;;;;33.30;30.69;96480.38;5024971;28;20516;-66
2022/08/27 10:05:35;;;;;;;21.42;6.57;;;;;;;33.42;30.52;96470.34;5024933;28;20064;-67
2022/08/27 10:08:09;;;;;;;;;;;;;;;33.42;30.69;96490.47;5027019;28;20554;-66
2022/08/27 10:10:51;;;;;;;28.52;7.10;;;;;;;32.60;30.99;96488.94;5026504;28;19932;-66
2022/08/27 10:13:24;;;;;;;22.70;6.90;;;;;;;32.90;31.42;96486.94;5026395;28;20427;-67
2022/08/27 10:16:12;;;;;;;22.00;8.32;;;;;;;32.82;31.60;96488.78;5026009;28;20049;-65
2022/08/27 10:18:48;;;;;;;24.88;7.30;;;;;;;33.35;30.41;96485.28;5023977;28;20057;-66
2022/08/27 10:21:22;;;;;;;25.08;7.15;;;;;;;32.90;30.17;96394.31;5024445;28;20056;-67
2022/08/27 10:24:08;;;;;;;26.63;6.55;;;;;;;33.46;29.13;96427.75;5024233;28;20140;-67
2022/08/27 10:26:47;;;;;;;22.88;6.05;;;;;;;33.93;29.89;96482.13;5025992;28;20065;-66
2022/08/27 10:29:37;;;;;;;28.95;6.55;;;;;;;32.94;30.48;96493.19;5026045;28;20057;-66
2022/08/27 10:32:28;;;;;;;35.10;7.63;;;;;;;33.25;30.73;96494.75;5027997;28;20060;-67
2022/08/27 10:35:15;;;;;;;42.38;8.30;;;;;;;33.49;29.74;96478.41;5043787;28;20435;-66
2022/08/27 10:37:55;;;;;;;29.95;7.30;;;;;;;33.06;30.32;96433.59;5045488;28;20056;-67
2022/08/27 10:40:33;;;;;;;31.40;7.68;;;;;;;32.95;31.22;96485.34;5045508;28;20567;-69
2022/08/27 10:43:07;;;;;;;29.77;7.20;;;;;;;32.96;31.00;96481.19;5043470;28;20064;-68
2022/08/27 10:45:41;;;;;;;26.05;8.30;;;;;;;33.10;31.17;96475.03;5044128;28;20435;-68
2022/08/27 10:48:14;;;;;;;22.98;7.47;;;;;;;32.69;31.38;96479.25;5043571;28;20052;-67
2022/08/27 10:51:07;;;;;;;26.00;7.95;;;;;;;32.48;31.67;96458.78;5045487;28;20107;-70
2022/08/27 10:53:59;;;;;;;28.60;9.20;;;;;;;32.24;31.91;96485.19;5045373;28;20053;-70
2022/08/27 10:57:14;;;;;;;34.72;8.27;;;;;;;32.24;32.08;96495.88;5045055;28;20049;-68
2022/08/27 11:00:11;;;;;;;27.45;7.18;;;;;;;31.76;31.95;96472.56;5045336;28;20110;-67
2022/08/27 11:02:42;;;;;;;35.85;8.25;;;;;;;31.64;33.30;96493.94;5043160;28;20053;-67
2022/08/27 11:05:16;;;;;;;32.25;8.82;;;;;;;32.03;33.01;96494.66;5045210;28;20049;-66
2022/08/27 11:07:52;;;;;;;22.48;8.07;;;;;;;31.34;32.60;96407.06;5043603;28;20818;-67
2022/08/27 11:10:27;;;;;;;29.52;7.10;;;;;;;31.51;32.47;96493.69;5043307;28;20060;-67
2022/08/27 11:13:04;;;;;;;34.58;8.30;;;;;;;30.83;33.48;96386.28;5043188;28;20053;-68
2022/08/27 11:15:37;;;;;;;28.80;8.10;;;;;;;32.02;32.24;96467.31;5043185;28;20061;-66
2022/08/27 11:18:13;;;;;;;37.20;7.80;;;;;;;32.57;32.38;96484.25;5044899;28;20574;-67
2022/08/27 11:20:42;;;;;;;35.42;8.48;;;;;;;32.89;31.05;96465.31;5043911;28;20059;-66
2022/08/27 11:23:14;;;;;;;27.52;6.82;;;;;;;33.30;31.08;96488.97;5043470;28;20052;-67
2022/08/27 11:25:52;;;;;;;28.63;6.90;;;;;;;33.81;30.51;96486.44;5044437;28;20053;-66
2022/08/27 11:28:24;;;;;;;34.92;7.35;;;;;;;34.15;30.51;96476.13;5045050;28;20661;-68
2022/08/27 11:31:37;;;;;;;31.35;7.53;;;;;;;33.92;29.96;96477.72;5043401;28;20160;-66
2022/08/27 11:34:09;;;;;;;28.73;8.32;;;;;;;33.73;30.21;96478.38;4984599;28;20104;-67
2022/08/27 11:37:05;;;;;;;28.23;7.33;;;;;;;33.15;30.18;96445.50;5003563;28;20124;-68
2022/08/27 11:39:53;;;;;;;33.05;8.18;;;;;;;34.03;29.63;96480.44;5003501;28;20061;-68
2022/08/27 11:42:44;;;;;;;29.08;7.80;;;;;;;34.27;28.84;96471.78;5004448;28;20515;-68
2022/08/27 11:45:33;;;;;;;23.52;7.25;;;;;;;33.59;29.61;96470.97;5004409;28;20065;-66
2022/08/27 11:48:13;;;;;;;22.08;7.50;;;;;;;33.36;30.20;96452.38;5003375;28;20061;-67
2022/08/27 11:50:51;;;;;;;25.27;7.35;;;;;;;34.23;29.34;96472.09;5003224;28;20054;-67
2022/08/27 11:53:24;;;;;;;32.72;7.97;;;;;;;34.36;28.93;96434.00;5004643;28;20820;-66